EPWR/WRO METAR and TAF weather

Enter ICAO airport designator
Station Type Date Time Source
EPWR METAR 2018/10/21 07:00 UTC NOAA

EPWR 210700Z VRB02KT 9999 FEW013 BKN020 07/05 Q1028


Station Type Date Time Source
EPWR Decoded METAR 2018/10/21 07:00 UTC NOAA

Wroclaw Ii, Poland (EPWR) 51-06N 016-53E 121M
Oct 21, 2018 - 03:00 AM EDT / 2018.10.21 0700 UTC
Wind: Variable at 2 MPH (2 KT):0
Visibility: greater than 7 mile(s):0
Sky conditions: mostly cloudy
Temperature: 44 F (7 C)
Dew Point: 41 F (5 C)
Relative Humidity: 87%
Pressure (altimeter): 30.36 in. Hg (1028 hPa)
ob: EPWR 210700Z VRB02KT 9999 FEW013 BKN020 07/05 Q1028
cycle: 7

Station Type Date Time Source
EPWR TAF 2018/10/21 06:33 UTC NOAA

TAF EPWR 210530Z 2106/2206 VRB05KT 9999 BKN015 PROB40 2106/2109 2000 BR OVC005 PROB30 2106/2108 0600 FG OVC002
TEMPO 2203/2206 3000 BR BKN005


Example: see airport list